sensor_id;sensor_type;location;lat;lon;timestamp;P1;durP1;ratioP1;P2;durP2;ratioP2
8327;SDS011;4201;48.754;8.864;2022-12-18T00:00:44;69.72;;;34.35;;
8327;SDS011;4201;48.754;8.864;2022-12-18T00:03:11;64.78;;;32.15;;
8327;SDS011;4201;48.754;8.864;2022-12-18T00:05:45;77.18;;;31.83;;
8327;SDS011;4201;48.754;8.864;2022-12-18T00:08:11;67.10;;;34.28;;
8327;SDS011;4201;48.754;8.864;2022-12-18T00:10:37;63.88;;;30.88;;
8327;SDS011;4201;48.754;8.864;2022-12-18T00:13:05;70.25;;;33.72;;
8327;SDS011;4201;48.754;8.864;2022-12-18T00:15:33;65.80;;;33.33;;
8327;SDS011;4201;48.754;8.864;2022-12-18T00:18:00;77.55;;;32.67;;
8327;SDS011;4201;48.754;8.864;2022-12-18T00:20:26;63.05;;;32.35;;
8327;SDS011;4201;48.754;8.864;2022-12-18T00:22:52;58.47;;;31.00;;
8327;SDS011;4201;48.754;8.864;2022-12-18T00:25:18;61.38;;;29.58;;
8327;SDS011;4201;48.754;8.864;2022-12-18T00:27:45;71.25;;;32.70;;
8327;SDS011;4201;48.754;8.864;2022-12-18T00:30:12;64.57;;;31.27;;
8327;SDS011;4201;48.754;8.864;2022-12-18T00:32:39;52.75;;;28.63;;
8327;SDS011;4201;48.754;8.864;2022-12-18T00:35:05;52.97;;;28.27;;
8327;SDS011;4201;48.754;8.864;2022-12-18T00:37:32;54.53;;;27.70;;
8327;SDS011;4201;48.754;8.864;2022-12-18T00:39:59;60.10;;;30.25;;
8327;SDS011;4201;48.754;8.864;2022-12-18T00:42:25;61.50;;;30.63;;
8327;SDS011;4201;48.754;8.864;2022-12-18T00:45:09;57.33;;;28.77;;
8327;SDS011;4201;48.754;8.864;2022-12-18T00:47:36;64.22;;;30.17;;
8327;SDS011;4201;48.754;8.864;2022-12-18T00:50:03;56.63;;;28.92;;
8327;SDS011;4201;48.754;8.864;2022-12-18T00:52:29;57.55;;;30.35;;
8327;SDS011;4201;48.754;8.864;2022-12-18T00:54:56;58.53;;;29.10;;
8327;SDS011;4201;48.754;8.864;2022-12-18T00:57:22;57.53;;;28.25;;
8327;SDS011;4201;48.754;8.864;2022-12-18T00:59:48;69.55;;;29.77;;
8327;SDS011;4201;48.754;8.864;2022-12-18T01:02:14;51.60;;;29.40;;
8327;SDS011;4201;48.754;8.864;2022-12-18T01:04:42;56.35;;;28.75;;
8327;SDS011;4201;48.754;8.864;2022-12-18T01:07:08;58.35;;;30.45;;
8327;SDS011;4201;48.754;8.864;2022-12-18T01:09:35;69.43;;;32.53;;
8327;SDS011;4201;48.754;8.864;2022-12-18T01:12:01;60.38;;;31.73;;
8327;SDS011;4201;48.754;8.864;2022-12-18T01:14:27;63.92;;;30.48;;
8327;SDS011;4201;48.754;8.864;2022-12-18T01:16:53;67.25;;;32.30;;
8327;SDS011;4201;48.754;8.864;2022-12-18T01:19:20;60.17;;;28.90;;
8327;SDS011;4201;48.754;8.864;2022-12-18T01:21:47;59.60;;;30.38;;
8327;SDS011;4201;48.754;8.864;2022-12-18T01:24:13;58.35;;;28.30;;
8327;SDS011;4201;48.754;8.864;2022-12-18T01:26:40;61.08;;;28.67;;
8327;SDS011;4201;48.754;8.864;2022-12-18T01:29:06;67.88;;;32.22;;
8327;SDS011;4201;48.754;8.864;2022-12-18T01:31:33;70.72;;;30.15;;
8327;SDS011;4201;48.754;8.864;2022-12-18T01:33:59;67.60;;;31.25;;
8327;SDS011;4201;48.754;8.864;2022-12-18T01:36:26;62.90;;;31.42;;
8327;SDS011;4201;48.754;8.864;2022-12-18T01:38:54;65.68;;;31.23;;
8327;SDS011;4201;48.754;8.864;2022-12-18T01:41:22;59.30;;;29.10;;
8327;SDS011;4201;48.754;8.864;2022-12-18T01:43:50;67.68;;;30.38;;
8327;SDS011;4201;48.754;8.864;2022-12-18T01:46:17;68.38;;;30.08;;
8327;SDS011;4201;48.754;8.864;2022-12-18T01:48:44;63.05;;;29.67;;
8327;SDS011;4201;48.754;8.864;2022-12-18T01:51:12;65.50;;;30.65;;
8327;SDS011;4201;48.754;8.864;2022-12-18T01:53:38;55.20;;;29.85;;
8327;SDS011;4201;48.754;8.864;2022-12-18T01:56:07;59.20;;;31.35;;
8327;SDS011;4201;48.754;8.864;2022-12-18T01:58:35;59.35;;;29.45;;
8327;SDS011;4201;48.754;8.864;2022-12-18T02:01:03;55.60;;;29.30;;
8327;SDS011;4201;48.754;8.864;2022-12-18T02:03:29;58.17;;;28.35;;
8327;SDS011;4201;48.754;8.864;2022-12-18T02:05:57;58.65;;;27.17;;
8327;SDS011;4201;48.754;8.864;2022-12-18T02:08:28;66.90;;;29.92;;
8327;SDS011;4201;48.754;8.864;2022-12-18T02:11:00;59.17;;;30.08;;
8327;SDS011;4201;48.754;8.864;2022-12-18T02:13:35;66.63;;;30.75;;
8327;SDS011;4201;48.754;8.864;2022-12-18T02:16:03;57.72;;;28.67;;
8327;SDS011;4201;48.754;8.864;2022-12-18T06:11:00;64.65;;;30.75;;
8327;SDS011;4201;48.754;8.864;2022-12-18T06:13:26;65.15;;;27.63;;
8327;SDS011;4201;48.754;8.864;2022-12-18T06:15:52;79.32;;;30.60;;
8327;SDS011;4201;48.754;8.864;2022-12-18T06:18:18;65.10;;;29.17;;
8327;SDS011;4201;48.754;8.864;2022-12-18T06:20:45;63.38;;;29.35;;
8327;SDS011;4201;48.754;8.864;2022-12-18T06:23:11;63.00;;;27.27;;
8327;SDS011;4201;48.754;8.864;2022-12-18T06:25:39;68.53;;;29.08;;
8327;SDS011;4201;48.754;8.864;2022-12-18T06:28:07;72.75;;;28.58;;
8327;SDS011;4201;48.754;8.864;2022-12-18T06:30:33;65.75;;;26.77;;
8327;SDS011;4201;48.754;8.864;2022-12-18T06:32:59;68.10;;;26.58;;
8327;SDS011;4201;48.754;8.864;2022-12-18T06:35:25;60.70;;;29.20;;
8327;SDS011;4201;48.754;8.864;2022-12-18T06:37:52;54.50;;;26.65;;
8327;SDS011;4201;48.754;8.864;2022-12-18T06:40:18;56.40;;;25.60;;
8327;SDS011;4201;48.754;8.864;2022-12-18T06:42:44;58.42;;;25.38;;
8327;SDS011;4201;48.754;8.864;2022-12-18T06:45:12;70.88;;;28.25;;
8327;SDS011;4201;48.754;8.864;2022-12-18T06:47:38;60.38;;;25.02;;
8327;SDS011;4201;48.754;8.864;2022-12-18T06:50:05;66.53;;;29.88;;
8327;SDS011;4201;48.754;8.864;2022-12-18T06:52:31;64.55;;;30.52;;
8327;SDS011;4201;48.754;8.864;2022-12-18T06:54:58;67.18;;;30.13;;
8327;SDS011;4201;48.754;8.864;2022-12-18T06:57:24;66.75;;;28.77;;
8327;SDS011;4201;48.754;8.864;2022-12-18T06:59:51;65.97;;;28.60;;
8327;SDS011;4201;48.754;8.864;2022-12-18T07:02:18;68.90;;;31.30;;
8327;SDS011;4201;48.754;8.864;2022-12-18T07:04:45;63.80;;;28.70;;
8327;SDS011;4201;48.754;8.864;2022-12-18T07:07:11;70.03;;;30.20;;
8327;SDS011;4201;48.754;8.864;2022-12-18T07:09:37;68.65;;;29.48;;
8327;SDS011;4201;48.754;8.864;2022-12-18T07:12:03;72.35;;;31.73;;
8327;SDS011;4201;48.754;8.864;2022-12-18T07:14:30;77.65;;;30.13;;
8327;SDS011;4201;48.754;8.864;2022-12-18T07:16:56;75.10;;;32.15;;
8327;SDS011;4201;48.754;8.864;2022-12-18T07:19:24;65.30;;;31.17;;
8327;SDS011;4201;48.754;8.864;2022-12-18T07:21:50;75.80;;;28.80;;
8327;SDS011;4201;48.754;8.864;2022-12-18T07:24:17;67.88;;;30.80;;
8327;SDS011;4201;48.754;8.864;2022-12-18T07:26:45;67.35;;;28.67;;
8327;SDS011;4201;48.754;8.864;2022-12-18T07:29:11;59.67;;;29.17;;
8327;SDS011;4201;48.754;8.864;2022-12-18T07:31:37;65.60;;;28.95;;
8327;SDS011;4201;48.754;8.864;2022-12-18T07:34:04;59.13;;;28.25;;
8327;SDS011;4201;48.754;8.864;2022-12-18T07:36:31;55.25;;;26.05;;
8327;SDS011;4201;48.754;8.864;2022-12-18T07:38:57;66.72;;;29.23;;
8327;SDS011;4201;48.754;8.864;2022-12-18T07:41:24;75.55;;;30.98;;
8327;SDS011;4201;48.754;8.864;2022-12-18T07:43:50;64.47;;;31.30;;
8327;SDS011;4201;48.754;8.864;2022-12-18T07:46:17;57.38;;;28.23;;
8327;SDS011;4201;48.754;8.864;2022-12-18T07:48:43;84.90;;;36.47;;
8327;SDS011;4201;48.754;8.864;2022-12-18T07:51:11;91.72;;;38.00;;
8327;SDS011;4201;48.754;8.864;2022-12-18T07:53:39;66.97;;;31.67;;
8327;SDS011;4201;48.754;8.864;2022-12-18T07:56:06;69.50;;;31.15;;
8327;SDS011;4201;48.754;8.864;2022-12-18T07:58:32;66.28;;;30.52;;
8327;SDS011;4201;48.754;8.864;2022-12-18T08:01:02;69.82;;;28.83;;
8327;SDS011;4201;48.754;8.864;2022-12-18T08:03:28;59.03;;;28.83;;
8327;SDS011;4201;48.754;8.864;2022-12-18T08:05:57;61.42;;;29.27;;
8327;SDS011;4201;48.754;8.864;2022-12-18T08:08:24;74.72;;;34.30;;
8327;SDS011;4201;48.754;8.864;2022-12-18T08:10:51;74.00;;;34.55;;
8327;SDS011;4201;48.754;8.864;2022-12-18T08:13:17;80.80;;;35.00;;
8327;SDS011;4201;48.754;8.864;2022-12-18T08:15:44;65.88;;;31.90;;
8327;SDS011;4201;48.754;8.864;2022-12-18T08:18:10;67.07;;;29.63;;
8327;SDS011;4201;48.754;8.864;2022-12-18T08:20:36;63.03;;;31.98;;
8327;SDS011;4201;48.754;8.864;2022-12-18T08:23:02;73.68;;;34.85;;
8327;SDS011;4201;48.754;8.864;2022-12-18T08:25:29;76.22;;;35.17;;
8327;SDS011;4201;48.754;8.864;2022-12-18T08:27:56;71.50;;;33.33;;
8327;SDS011;4201;48.754;8.864;2022-12-18T08:30:23;63.67;;;31.40;;
8327;SDS011;4201;48.754;8.864;2022-12-18T08:32:51;61.28;;;28.30;;
8327;SDS011;4201;48.754;8.864;2022-12-18T08:35:17;62.17;;;28.33;;
8327;SDS011;4201;48.754;8.864;2022-12-18T08:37:44;67.25;;;29.90;;
8327;SDS011;4201;48.754;8.864;2022-12-18T08:40:10;69.40;;;37.28;;
8327;SDS011;4201;48.754;8.864;2022-12-18T08:42:37;67.30;;;34.10;;
8327;SDS011;4201;48.754;8.864;2022-12-18T08:45:22;79.53;;;32.55;;
8327;SDS011;4201;48.754;8.864;2022-12-18T08:47:49;71.22;;;33.28;;
8327;SDS011;4201;48.754;8.864;2022-12-18T08:50:16;64.93;;;30.73;;
8327;SDS011;4201;48.754;8.864;2022-12-18T08:52:42;76.07;;;35.38;;
8327;SDS011;4201;48.754;8.864;2022-12-18T08:55:09;69.05;;;32.58;;
8327;SDS011;4201;48.754;8.864;2022-12-18T08:57:35;69.70;;;32.50;;
8327;SDS011;4201;48.754;8.864;2022-12-18T09:00:01;67.65;;;31.05;;
8327;SDS011;4201;48.754;8.864;2022-12-18T09:02:29;66.72;;;38.33;;
8327;SDS011;4201;48.754;8.864;2022-12-18T09:04:55;72.47;;;34.92;;
8327;SDS011;4201;48.754;8.864;2022-12-18T09:07:21;76.72;;;32.33;;
8327;SDS011;4201;48.754;8.864;2022-12-18T09:09:48;67.55;;;32.65;;
8327;SDS011;4201;48.754;8.864;2022-12-18T09:12:14;67.82;;;30.42;;
8327;SDS011;4201;48.754;8.864;2022-12-18T09:14:40;59.63;;;30.33;;
8327;SDS011;4201;48.754;8.864;2022-12-18T09:17:07;60.92;;;29.38;;
8327;SDS011;4201;48.754;8.864;2022-12-18T09:19:34;73.10;;;32.00;;
8327;SDS011;4201;48.754;8.864;2022-12-18T09:22:00;72.88;;;32.95;;
8327;SDS011;4201;48.754;8.864;2022-12-18T09:24:27;73.18;;;33.00;;
8327;SDS011;4201;48.754;8.864;2022-12-18T09:26:53;67.10;;;32.95;;
8327;SDS011;4201;48.754;8.864;2022-12-18T09:29:20;62.65;;;29.55;;
8327;SDS011;4201;48.754;8.864;2022-12-18T09:31:47;63.90;;;30.13;;
8327;SDS011;4201;48.754;8.864;2022-12-18T09:34:14;63.75;;;29.60;;
8327;SDS011;4201;48.754;8.864;2022-12-18T09:36:42;53.60;;;27.02;;
8327;SDS011;4201;48.754;8.864;2022-12-18T09:39:08;66.30;;;30.90;;
8327;SDS011;4201;48.754;8.864;2022-12-18T09:41:42;62.35;;;30.40;;
8327;SDS011;4201;48.754;8.864;2022-12-18T09:44:11;57.45;;;31.27;;
8327;SDS011;4201;48.754;8.864;2022-12-18T09:46:40;63.53;;;29.42;;
8327;SDS011;4201;48.754;8.864;2022-12-18T09:49:10;62.67;;;28.63;;
8327;SDS011;4201;48.754;8.864;2022-12-18T09:51:39;63.47;;;28.23;;
8327;SDS011;4201;48.754;8.864;2022-12-18T09:54:12;62.33;;;28.48;;
8327;SDS011;4201;48.754;8.864;2022-12-18T09:56:40;67.78;;;28.00;;
8327;SDS011;4201;48.754;8.864;2022-12-18T09:59:09;60.63;;;27.65;;
8327;SDS011;4201;48.754;8.864;2022-12-18T10:01:40;60.72;;;26.08;;
8327;SDS011;4201;48.754;8.864;2022-12-18T10:04:07;63.93;;;27.33;;
8327;SDS011;4201;48.754;8.864;2022-12-18T10:06:35;59.57;;;28.00;;
8327;SDS011;4201;48.754;8.864;2022-12-18T10:09:05;54.97;;;28.77;;
8327;SDS011;4201;48.754;8.864;2022-12-18T10:11:37;59.47;;;29.48;;
8327;SDS011;4201;48.754;8.864;2022-12-18T10:14:07;57.73;;;28.63;;
8327;SDS011;4201;48.754;8.864;2022-12-18T10:16:36;78.43;;;39.90;;
8327;SDS011;4201;48.754;8.864;2022-12-18T10:19:12;56.13;;;28.90;;
8327;SDS011;4201;48.754;8.864;2022-12-18T10:21:45;61.27;;;28.80;;
8327;SDS011;4201;48.754;8.864;2022-12-18T10:24:16;58.97;;;29.97;;
8327;SDS011;4201;48.754;8.864;2022-12-18T10:26:48;63.17;;;27.47;;
8327;SDS011;4201;48.754;8.864;2022-12-18T10:29:15;65.80;;;32.80;;
8327;SDS011;4201;48.754;8.864;2022-12-18T10:31:41;59.57;;;30.20;;
8327;SDS011;4201;48.754;8.864;2022-12-18T10:34:08;58.65;;;29.65;;
8327;SDS011;4201;48.754;8.864;2022-12-18T10:36:35;64.37;;;31.07;;
8327;SDS011;4201;48.754;8.864;2022-12-18T10:39:09;70.70;;;33.63;;
8327;SDS011;4201;48.754;8.864;2022-12-18T10:41:39;66.70;;;31.90;;
8327;SDS011;4201;48.754;8.864;2022-12-18T10:44:15;65.03;;;29.87;;
8327;SDS011;4201;48.754;8.864;2022-12-18T10:46:42;65.77;;;30.03;;
8327;SDS011;4201;48.754;8.864;2022-12-18T10:49:18;61.43;;;30.13;;
8327;SDS011;4201;48.754;8.864;2022-12-18T10:51:44;64.67;;;30.70;;
8327;SDS011;4201;48.754;8.864;2022-12-18T10:54:13;58.93;;;29.67;;
8327;SDS011;4201;48.754;8.864;2022-12-18T10:56:40;59.63;;;29.10;;
8327;SDS011;4201;48.754;8.864;2022-12-18T10:59:07;60.07;;;28.50;;
8327;SDS011;4201;48.754;8.864;2022-12-18T11:01:46;63.40;;;30.23;;
8327;SDS011;4201;48.754;8.864;2022-12-18T11:04:15;61.23;;;32.07;;
8327;SDS011;4201;48.754;8.864;2022-12-18T11:06:52;63.33;;;29.90;;
8327;SDS011;4201;48.754;8.864;2022-12-18T11:09:19;66.63;;;29.60;;
8327;SDS011;4201;48.754;8.864;2022-12-18T11:11:47;64.67;;;30.73;;
8327;SDS011;4201;48.754;8.864;2022-12-18T11:14:15;58.90;;;30.67;;
8327;SDS011;4201;48.754;8.864;2022-12-18T11:16:46;59.87;;;30.03;;
8327;SDS011;4201;48.754;8.864;2022-12-18T11:19:19;67.10;;;29.63;;
8327;SDS011;4201;48.754;8.864;2022-12-18T11:21:47;68.80;;;31.87;;
8327;SDS011;4201;48.754;8.864;2022-12-18T11:24:19;60.13;;;29.77;;
8327;SDS011;4201;48.754;8.864;2022-12-18T11:26:46;59.03;;;30.67;;
8327;SDS011;4201;48.754;8.864;2022-12-18T11:29:15;70.33;;;31.97;;
8327;SDS011;4201;48.754;8.864;2022-12-18T11:31:42;68.03;;;36.10;;
8327;SDS011;4201;48.754;8.864;2022-12-18T11:34:11;65.20;;;34.87;;
8327;SDS011;4201;48.754;8.864;2022-12-18T11:36:41;65.33;;;31.50;;
8327;SDS011;4201;48.754;8.864;2022-12-18T11:39:10;60.80;;;29.87;;
8327;SDS011;4201;48.754;8.864;2022-12-18T11:41:39;70.03;;;33.27;;
8327;SDS011;4201;48.754;8.864;2022-12-18T11:44:42;61.20;;;29.53;;
8327;SDS011;4201;48.754;8.864;2022-12-18T11:47:10;68.03;;;32.10;;
8327;SDS011;4201;48.754;8.864;2022-12-18T11:49:39;68.30;;;31.00;;
8327;SDS011;4201;48.754;8.864;2022-12-18T11:52:08;64.40;;;33.33;;
8327;SDS011;4201;48.754;8.864;2022-12-18T11:54:36;64.70;;;31.93;;
8327;SDS011;4201;48.754;8.864;2022-12-18T11:57:04;58.47;;;30.37;;
8327;SDS011;4201;48.754;8.864;2022-12-18T11:59:33;67.17;;;32.33;;
8327;SDS011;4201;48.754;8.864;2022-12-18T12:02:04;62.27;;;31.70;;
8327;SDS011;4201;48.754;8.864;2022-12-18T12:04:43;61.63;;;31.53;;
8327;SDS011;4201;48.754;8.864;2022-12-18T12:07:15;66.83;;;32.97;;
8327;SDS011;4201;48.754;8.864;2022-12-18T12:09:47;83.33;;;37.50;;
8327;SDS011;4201;48.754;8.864;2022-12-18T12:12:19;84.70;;;40.23;;
8327;SDS011;4201;48.754;8.864;2022-12-18T12:14:48;80.40;;;38.43;;
8327;SDS011;4201;48.754;8.864;2022-12-18T12:17:21;68.37;;;35.57;;
8327;SDS011;4201;48.754;8.864;2022-12-18T12:19:51;74.13;;;36.00;;
8327;SDS011;4201;48.754;8.864;2022-12-18T12:22:21;65.40;;;31.97;;
8327;SDS011;4201;48.754;8.864;2022-12-18T12:24:51;68.67;;;31.77;;
8327;SDS011;4201;48.754;8.864;2022-12-18T12:27:20;70.20;;;32.07;;
8327;SDS011;4201;48.754;8.864;2022-12-18T12:29:55;68.83;;;32.70;;
8327;SDS011;4201;48.754;8.864;2022-12-18T12:32:29;81.57;;;37.17;;
8327;SDS011;4201;48.754;8.864;2022-12-18T12:35:03;83.00;;;37.73;;
8327;SDS011;4201;48.754;8.864;2022-12-18T12:37:33;80.90;;;36.57;;
8327;SDS011;4201;48.754;8.864;2022-12-18T12:40:02;68.50;;;34.70;;
8327;SDS011;4201;48.754;8.864;2022-12-18T12:42:30;62.60;;;32.00;;
8327;SDS011;4201;48.754;8.864;2022-12-18T12:45:15;67.17;;;32.10;;
8327;SDS011;4201;48.754;8.864;2022-12-18T12:47:42;68.77;;;32.60;;
8327;SDS011;4201;48.754;8.864;2022-12-18T12:50:13;65.03;;;33.57;;
8327;SDS011;4201;48.754;8.864;2022-12-18T12:52:42;64.30;;;32.90;;
8327;SDS011;4201;48.754;8.864;2022-12-18T12:55:12;67.37;;;32.00;;
8327;SDS011;4201;48.754;8.864;2022-12-18T12:57:41;89.50;;;36.53;;
8327;SDS011;4201;48.754;8.864;2022-12-18T13:00:13;76.33;;;34.40;;
8327;SDS011;4201;48.754;8.864;2022-12-18T13:02:42;67.40;;;34.47;;
8327;SDS011;4201;48.754;8.864;2022-12-18T13:05:14;70.83;;;32.53;;
8327;SDS011;4201;48.754;8.864;2022-12-18T13:07:45;70.63;;;33.33;;
8327;SDS011;4201;48.754;8.864;2022-12-18T13:10:23;84.20;;;36.80;;
8327;SDS011;4201;48.754;8.864;2022-12-18T13:12:56;97.03;;;40.37;;
8327;SDS011;4201;48.754;8.864;2022-12-18T13:15:23;80.30;;;39.90;;
8327;SDS011;4201;48.754;8.864;2022-12-18T13:17:56;111.40;;;50.00;;
8327;SDS011;4201;48.754;8.864;2022-12-18T13:20:33;92.10;;;40.20;;
8327;SDS011;4201;48.754;8.864;2022-12-18T13:23:00;77.57;;;38.90;;
8327;SDS011;4201;48.754;8.864;2022-12-18T13:25:28;83.07;;;40.97;;
8327;SDS011;4201;48.754;8.864;2022-12-18T13:28:06;65.77;;;35.37;;
8327;SDS011;4201;48.754;8.864;2022-12-18T13:30:52;73.70;;;35.40;;
8327;SDS011;4201;48.754;8.864;2022-12-18T13:36:15;74.37;;;37.90;;
8327;SDS011;4201;48.754;8.864;2022-12-18T13:38:41;75.53;;;38.83;;
8327;SDS011;4201;48.754;8.864;2022-12-18T13:41:21;75.77;;;37.47;;
8327;SDS011;4201;48.754;8.864;2022-12-18T13:43:48;70.47;;;35.93;;
8327;SDS011;4201;48.754;8.864;2022-12-18T13:46:25;78.87;;;36.87;;
8327;SDS011;4201;48.754;8.864;2022-12-18T13:48:57;71.43;;;35.87;;
8327;SDS011;4201;48.754;8.864;2022-12-18T13:51:25;75.00;;;37.17;;
8327;SDS011;4201;48.754;8.864;2022-12-18T13:53:53;75.10;;;35.80;;
8327;SDS011;4201;48.754;8.864;2022-12-18T13:56:21;71.80;;;36.67;;
8327;SDS011;4201;48.754;8.864;2022-12-18T14:01:30;68.97;;;35.50;;
8327;SDS011;4201;48.754;8.864;2022-12-18T14:04:08;70.10;;;35.73;;
8327;SDS011;4201;48.754;8.864;2022-12-18T14:06:36;76.23;;;36.80;;
8327;SDS011;4201;48.754;8.864;2022-12-18T14:15:15;70.27;;;34.17;;
8327;SDS011;4201;48.754;8.864;2022-12-18T14:17:46;85.80;;;39.13;;
8327;SDS011;4201;48.754;8.864;2022-12-18T14:20:13;79.97;;;39.40;;
8327;SDS011;4201;48.754;8.864;2022-12-18T14:22:43;79.90;;;38.90;;
8327;SDS011;4201;48.754;8.864;2022-12-18T14:25:16;75.93;;;39.10;;
8327;SDS011;4201;48.754;8.864;2022-12-18T14:27:43;77.97;;;39.70;;
8327;SDS011;4201;48.754;8.864;2022-12-18T14:30:26;110.00;;;49.93;;
8327;SDS011;4201;48.754;8.864;2022-12-18T14:33:02;82.37;;;40.50;;
8327;SDS011;4201;48.754;8.864;2022-12-18T14:35:28;90.53;;;41.13;;
8327;SDS011;4201;48.754;8.864;2022-12-18T14:38:09;70.30;;;35.60;;
8327;SDS011;4201;48.754;8.864;2022-12-18T14:40:35;67.10;;;33.47;;
8327;SDS011;4201;48.754;8.864;2022-12-18T14:43:02;63.10;;;33.97;;
8327;SDS011;4201;48.754;8.864;2022-12-18T14:45:35;59.70;;;31.10;;
8327;SDS011;4201;48.754;8.864;2022-12-18T14:48:05;72.17;;;31.90;;
8327;SDS011;4201;48.754;8.864;2022-12-18T14:50:31;62.90;;;36.20;;
8327;SDS011;4201;48.754;8.864;2022-12-18T14:52:58;62.40;;;33.17;;
8327;SDS011;4201;48.754;8.864;2022-12-18T14:55:25;66.90;;;34.03;;
8327;SDS011;4201;48.754;8.864;2022-12-18T14:57:52;76.80;;;40.27;;
8327;SDS011;4201;48.754;8.864;2022-12-18T15:00:20;79.40;;;35.50;;
8327;SDS011;4201;48.754;8.864;2022-12-18T15:02:47;63.97;;;34.90;;
8327;SDS011;4201;48.754;8.864;2022-12-18T15:05:16;65.80;;;36.00;;
8327;SDS011;4201;48.754;8.864;2022-12-18T15:07:44;71.10;;;35.87;;
8327;SDS011;4201;48.754;8.864;2022-12-18T15:10:12;68.70;;;35.90;;
8327;SDS011;4201;48.754;8.864;2022-12-18T15:12:41;79.23;;;36.70;;
8327;SDS011;4201;48.754;8.864;2022-12-18T15:17:48;123.40;;;57.03;;
8327;SDS011;4201;48.754;8.864;2022-12-18T15:20:15;92.13;;;45.20;;
8327;SDS011;4201;48.754;8.864;2022-12-18T15:22:41;78.87;;;42.87;;
8327;SDS011;4201;48.754;8.864;2022-12-18T15:25:20;86.33;;;40.67;;
8327;SDS011;4201;48.754;8.864;2022-12-18T15:27:51;82.50;;;40.53;;
8327;SDS011;4201;48.754;8.864;2022-12-18T15:30:21;72.40;;;35.57;;
8327;SDS011;4201;48.754;8.864;2022-12-18T15:32:48;83.33;;;42.87;;
8327;SDS011;4201;48.754;8.864;2022-12-18T15:35:16;103.17;;;44.80;;
8327;SDS011;4201;48.754;8.864;2022-12-18T15:37:43;109.47;;;49.53;;
8327;SDS011;4201;48.754;8.864;2022-12-18T15:40:11;104.63;;;45.87;;
8327;SDS011;4201;48.754;8.864;2022-12-18T15:42:38;87.10;;;41.17;;
8327;SDS011;4201;48.754;8.864;2022-12-18T15:45:24;88.43;;;42.97;;
8327;SDS011;4201;48.754;8.864;2022-12-18T15:47:50;86.10;;;41.77;;
8327;SDS011;4201;48.754;8.864;2022-12-18T15:50:16;88.77;;;41.07;;
8327;SDS011;4201;48.754;8.864;2022-12-18T15:52:43;80.43;;;41.60;;
8327;SDS011;4201;48.754;8.864;2022-12-18T15:55:10;79.27;;;38.00;;
8327;SDS011;4201;48.754;8.864;2022-12-18T15:57:55;72.97;;;33.43;;
8327;SDS011;4201;48.754;8.864;2022-12-18T16:00:21;68.20;;;33.47;;
8327;SDS011;4201;48.754;8.864;2022-12-18T16:02:51;74.77;;;33.20;;
8327;SDS011;4201;48.754;8.864;2022-12-18T16:05:22;70.67;;;35.90;;
8327;SDS011;4201;48.754;8.864;2022-12-18T16:07:49;67.13;;;36.17;;
8327;SDS011;4201;48.754;8.864;2022-12-18T16:10:16;78.60;;;36.97;;
8327;SDS011;4201;48.754;8.864;2022-12-18T16:12:42;85.57;;;38.10;;
8327;SDS011;4201;48.754;8.864;2022-12-18T16:15:09;85.67;;;43.47;;
8327;SDS011;4201;48.754;8.864;2022-12-18T16:17:38;97.80;;;45.27;;
8327;SDS011;4201;48.754;8.864;2022-12-18T16:20:08;89.47;;;43.97;;
8327;SDS011;4201;48.754;8.864;2022-12-18T16:22:37;102.77;;;44.90;;
8327;SDS011;4201;48.754;8.864;2022-12-18T16:25:04;84.33;;;42.13;;
8327;SDS011;4201;48.754;8.864;2022-12-18T16:27:31;82.33;;;41.90;;
8327;SDS011;4201;48.754;8.864;2022-12-18T16:29:57;85.20;;;42.80;;
8327;SDS011;4201;48.754;8.864;2022-12-18T16:32:23;95.00;;;40.93;;
8327;SDS011;4201;48.754;8.864;2022-12-18T16:34:49;89.93;;;43.63;;
8327;SDS011;4201;48.754;8.864;2022-12-18T16:37:17;84.73;;;41.40;;
8327;SDS011;4201;48.754;8.864;2022-12-18T16:39:44;84.33;;;41.07;;
8327;SDS011;4201;48.754;8.864;2022-12-18T16:42:11;80.87;;;41.47;;
8327;SDS011;4201;48.754;8.864;2022-12-18T16:44:39;85.30;;;41.67;;
8327;SDS011;4201;48.754;8.864;2022-12-18T16:47:05;79.93;;;40.67;;
8327;SDS011;4201;48.754;8.864;2022-12-18T16:49:34;96.93;;;40.80;;
8327;SDS011;4201;48.754;8.864;2022-12-18T16:52:01;80.37;;;40.27;;
8327;SDS011;4201;48.754;8.864;2022-12-18T16:54:29;77.17;;;40.53;;
8327;SDS011;4201;48.754;8.864;2022-12-18T16:56:55;84.03;;;38.97;;
8327;SDS011;4201;48.754;8.864;2022-12-18T16:59:22;81.20;;;41.70;;
8327;SDS011;4201;48.754;8.864;2022-12-18T17:01:51;86.87;;;41.70;;
8327;SDS011;4201;48.754;8.864;2022-12-18T17:04:19;79.47;;;39.97;;
8327;SDS011;4201;48.754;8.864;2022-12-18T17:06:46;73.80;;;36.77;;
8327;SDS011;4201;48.754;8.864;2022-12-18T17:09:16;78.00;;;37.87;;
8327;SDS011;4201;48.754;8.864;2022-12-18T17:11:44;78.87;;;41.60;;
8327;SDS011;4201;48.754;8.864;2022-12-18T17:14:12;77.83;;;40.27;;
8327;SDS011;4201;48.754;8.864;2022-12-18T17:16:39;70.47;;;38.03;;
8327;SDS011;4201;48.754;8.864;2022-12-18T17:19:07;88.87;;;40.23;;
8327;SDS011;4201;48.754;8.864;2022-12-18T17:21:34;69.17;;;38.10;;
8327;SDS011;4201;48.754;8.864;2022-12-18T17:24:01;68.63;;;35.10;;
8327;SDS011;4201;48.754;8.864;2022-12-18T17:26:27;79.73;;;41.07;;
8327;SDS011;4201;48.754;8.864;2022-12-18T17:28:56;85.63;;;42.60;;
8327;SDS011;4201;48.754;8.864;2022-12-18T17:31:23;104.37;;;42.53;;
8327;SDS011;4201;48.754;8.864;2022-12-18T17:33:50;95.50;;;44.60;;
8327;SDS011;4201;48.754;8.864;2022-12-18T17:36:16;79.80;;;42.10;;
8327;SDS011;4201;48.754;8.864;2022-12-18T17:38:43;83.70;;;40.97;;
8327;SDS011;4201;48.754;8.864;2022-12-18T17:41:14;95.80;;;43.70;;
8327;SDS011;4201;48.754;8.864;2022-12-18T17:43:41;87.67;;;42.20;;
8327;SDS011;4201;48.754;8.864;2022-12-18T17:46:11;84.77;;;41.13;;
8327;SDS011;4201;48.754;8.864;2022-12-18T17:48:38;80.97;;;39.30;;
8327;SDS011;4201;48.754;8.864;2022-12-18T17:51:05;73.47;;;36.63;;
8327;SDS011;4201;48.754;8.864;2022-12-18T17:53:31;76.80;;;36.40;;
8327;SDS011;4201;48.754;8.864;2022-12-18T17:55:58;97.50;;;41.50;;
8327;SDS011;4201;48.754;8.864;2022-12-18T17:58:25;89.60;;;41.33;;
8327;SDS011;4201;48.754;8.864;2022-12-18T18:00:52;86.40;;;40.90;;
8327;SDS011;4201;48.754;8.864;2022-12-18T18:03:19;85.73;;;41.03;;
8327;SDS011;4201;48.754;8.864;2022-12-18T18:05:46;97.77;;;43.73;;
8327;SDS011;4201;48.754;8.864;2022-12-18T18:08:12;103.17;;;45.10;;
8327;SDS011;4201;48.754;8.864;2022-12-18T18:10:39;103.17;;;41.53;;
8327;SDS011;4201;48.754;8.864;2022-12-18T18:13:05;92.93;;;44.33;;
8327;SDS011;4201;48.754;8.864;2022-12-18T18:15:53;94.03;;;41.47;;
8327;SDS011;4201;48.754;8.864;2022-12-18T18:18:21;97.73;;;42.13;;
8327;SDS011;4201;48.754;8.864;2022-12-18T18:20:47;79.93;;;40.33;;
8327;SDS011;4201;48.754;8.864;2022-12-18T18:23:14;98.70;;;46.63;;
8327;SDS011;4201;48.754;8.864;2022-12-18T18:25:40;90.70;;;42.80;;
8327;SDS011;4201;48.754;8.864;2022-12-18T18:28:06;86.00;;;40.33;;
8327;SDS011;4201;48.754;8.864;2022-12-18T18:30:34;75.40;;;36.97;;
8327;SDS011;4201;48.754;8.864;2022-12-18T18:33:01;76.70;;;37.10;;
8327;SDS011;4201;48.754;8.864;2022-12-18T18:35:28;79.13;;;39.20;;
8327;SDS011;4201;48.754;8.864;2022-12-18T18:37:54;76.80;;;37.73;;
8327;SDS011;4201;48.754;8.864;2022-12-18T18:40:21;78.90;;;38.07;;
8327;SDS011;4201;48.754;8.864;2022-12-18T18:42:47;81.63;;;36.23;;
8327;SDS011;4201;48.754;8.864;2022-12-18T18:45:13;82.33;;;39.87;;
8327;SDS011;4201;48.754;8.864;2022-12-18T18:47:40;78.50;;;37.60;;
8327;SDS011;4201;48.754;8.864;2022-12-18T18:50:06;71.13;;;34.37;;
8327;SDS011;4201;48.754;8.864;2022-12-18T18:52:34;79.80;;;41.73;;
8327;SDS011;4201;48.754;8.864;2022-12-18T18:55:00;78.20;;;37.83;;
8327;SDS011;4201;48.754;8.864;2022-12-18T18:57:26;80.13;;;37.77;;
8327;SDS011;4201;48.754;8.864;2022-12-18T18:59:53;71.97;;;37.57;;
8327;SDS011;4201;48.754;8.864;2022-12-18T19:02:19;73.23;;;37.20;;